Time;durP1;ratioP1;P1;durP2;ratioP2;P2;SDS_P1;SDS_P2;PMS_P1;PMS_P2;Temp;Humidity;BMP_temperature;BMP_pressure;BME280_temperature;BME280_humidity;BME280_pressure;Samples;Min_cycle;Max_cycle;Signal;HPM_P1;HPM_P2
2022/03/24 00:02:26;;;;;;;28.00;14.80;;;;;;;0.47;67.73;100662.77;1763755;80;21083;-70
2022/03/24 00:04:53;;;;;;;27.87;13.50;;;;;;;0.44;68.60;100667.42;1794218;80;21047;-70
2022/03/24 00:07:20;;;;;;;29.77;14.67;;;;;;;0.40;69.57;100668.07;1763848;80;21004;-70
2022/03/24 00:09:49;;;;;;;32.20;16.73;;;;;;;0.31;70.53;100660.16;1763935;80;21060;-70
2022/03/24 00:12:16;;;;;;;32.30;18.07;;;;;;;0.24;71.45;100657.48;1763614;80;21032;-71
2022/03/24 00:14:45;;;;;;;39.63;20.20;;;;;;;0.16;72.28;100654.39;1794180;80;21525;-69
2022/03/24 00:17:13;;;;;;;30.73;16.00;;;;;;;0.08;73.92;100654.00;1794532;80;21024;-69
2022/03/24 00:19:41;;;;;;;36.67;19.37;;;;;;;-0.02;74.75;100649.67;1794675;80;21056;-71
2022/03/24 00:22:09;;;;;;;38.77;20.30;;;;;;;-0.10;75.24;100645.29;1795549;80;20959;-71
2022/03/24 00:24:56;;;;;;;48.50;24.70;;;;;;;-0.18;76.30;100643.53;1798649;79;21038;-69
2022/03/24 00:27:25;;;;;;;48.00;24.80;;;;;;;-0.26;77.44;100643.97;1796373;79;21003;-69
2022/03/24 00:29:53;;;;;;;47.80;24.60;;;;;;;-0.34;78.16;100630.25;1796133;80;21515;-69
2022/03/24 00:32:20;;;;;;;48.27;26.03;;;;;;;-0.40;78.84;100634.13;1796482;80;21055;-70
2022/03/24 00:34:47;;;;;;;48.27;24.77;;;;;;;-0.44;79.65;100631.26;1792254;80;21051;-69
2022/03/24 00:37:14;;;;;;;47.70;25.43;;;;;;;-0.47;80.80;100628.28;1790466;80;21047;-70
2022/03/24 00:39:42;;;;;;;51.83;26.00;;;;;;;-0.51;82.26;100625.88;1790188;80;21110;-70
2022/03/24 00:42:12;;;;;;;48.67;25.87;;;;;;;-0.55;83.52;100617.70;1790401;80;21547;-69
2022/03/24 00:47:11;;;;;;;48.83;26.50;;;;;;;-0.63;86.56;100613.67;1681786;85;21064;-70
2022/03/24 00:49:41;;;;;;;49.87;27.30;;;;;;;-0.68;87.45;100606.91;1637186;85;21509;-70
2022/03/24 00:52:11;;;;;;;51.77;26.93;;;;;;;-0.72;88.38;100601.39;1659278;85;21036;-70
2022/03/24 00:54:39;;;;;;;51.50;25.67;;;;;;;-0.72;89.62;100600.06;1681831;85;21076;-68
2022/03/24 00:57:07;;;;;;;49.23;25.80;;;;;;;-0.73;90.54;100595.20;1681439;85;21634;-69
2022/03/24 00:59:34;;;;;;;47.37;24.13;;;;;;;-0.73;90.92;100596.53;1681688;84;21052;-70
2022/03/24 01:02:09;;;;;;;50.33;23.93;;;;;;;-0.74;90.81;100586.87;1681756;85;21004;-69
2022/03/24 01:04:33;;;;;;;43.73;23.73;;;;;;;-0.75;90.50;100591.78;1678554;85;21036;-70
2022/03/24 01:07:00;;;;;;;49.27;22.70;;;;;;;-0.75;90.31;100589.13;1658764;85;21068;-70
2022/03/24 01:09:28;;;;;;;48.37;23.70;;;;;;;-0.75;90.60;100586.95;1681607;85;21044;-70
2022/03/24 01:11:56;;;;;;;49.77;23.83;;;;;;;-0.75;89.36;100585.14;1658640;85;21072;-70
2022/03/24 01:14:25;;;;;;;53.73;23.53;;;;;;;-0.76;89.25;100583.45;1681674;85;21080;-69
2022/03/24 01:16:52;;;;;;;50.47;23.07;;;;;;;-0.75;90.50;100581.64;1681459;85;21072;-70
2022/03/24 01:19:20;;;;;;;68.33;24.20;;;;;;;-0.72;91.27;100573.51;1658709;85;21067;-70
2022/03/24 01:21:48;;;;;;;55.13;23.57;;;;;;;-0.70;91.46;100571.14;1683936;84;21042;-70
2022/03/24 01:24:18;;;;;;;50.43;22.77;;;;;;;-0.67;92.43;100566.14;1690178;85;21046;-68
2022/03/24 01:26:45;;;;;;;44.40;22.20;;;;;;;-0.69;92.97;100565.34;1689291;85;21061;-70
2022/03/24 01:29:13;;;;;;;42.17;22.30;;;;;;;-0.71;93.23;100564.58;1680091;85;21068;-70
2022/03/24 01:31:42;;;;;;;45.30;22.53;;;;;;;-0.74;92.80;100554.12;1680020;85;21127;-69
2022/03/24 01:34:09;;;;;;;44.17;22.67;;;;;;;-0.75;91.52;100551.94;1684945;84;21131;-71
2022/03/24 01:36:38;;;;;;;41.93;22.40;;;;;;;-0.74;91.51;100547.03;1697737;84;21584;-70
2022/03/24 01:39:08;;;;;;;46.70;22.77;;;;;;;-0.74;91.38;100547.48;1697528;84;21122;-71
2022/03/24 01:41:38;;;;;;;44.50;22.57;;;;;;;-0.77;90.80;100548.52;1697772;84;21048;-70
2022/03/24 01:44:12;;;;;;;44.27;23.97;;;;;;;-0.79;91.15;100553.91;1754291;80;21051;-69
2022/03/24 01:47:03;;;;;;;46.63;23.03;;;;;;;-0.82;91.84;100547.44;1797363;80;21094;-69
2022/03/24 01:49:33;;;;;;;50.33;21.60;;;;;;;-0.85;91.36;100552.06;1692000;85;21064;-70
2022/03/24 01:52:01;;;;;;;47.97;22.47;;;;;;;-0.88;92.14;100542.48;1691974;85;21042;-70
2022/03/24 01:54:30;;;;;;;45.23;21.77;;;;;;;-0.85;91.65;100546.30;1691921;85;21089;-70
2022/03/24 01:56:58;;;;;;;59.10;32.03;;;;;;;-0.79;91.63;100551.27;1691721;85;21034;-69
2022/03/24 01:59:25;;;;;;;49.67;26.57;;;;;;;-0.75;91.38;100549.29;1692086;85;21556;-70
2022/03/24 02:01:52;;;;;;;56.23;29.57;;;;;;;-0.70;90.81;100543.25;1668592;85;21559;-71
2022/03/24 02:04:19;;;;;;;56.90;30.13;;;;;;;-0.69;91.29;100542.77;1691709;85;21031;-70
2022/03/24 02:06:47;;;;;;;54.30;30.43;;;;;;;-0.71;92.70;100543.33;1691793;85;21618;-70
2022/03/24 02:09:16;;;;;;;53.17;29.80;;;;;;;-0.75;93.93;100545.30;1636650;86;21117;-70
2022/03/24 02:11:45;;;;;;;53.13;29.60;;;;;;;-0.80;94.81;100535.41;1693130;85;21035;-70
2022/03/24 02:14:14;;;;;;;53.30;28.33;;;;;;;-0.82;95.56;100537.30;1693057;85;21515;-70
2022/03/24 02:16:41;;;;;;;52.47;28.80;;;;;;;-0.83;95.94;100536.94;1692045;85;21031;-71
2022/03/24 02:19:21;;;;;;;46.77;25.60;;;;;;;-0.85;96.18;100530.38;1691917;85;21027;-70
2022/03/24 02:21:53;;;;;;;56.13;25.50;;;;;;;-0.86;96.03;100526.00;1669178;85;21047;-70
2022/03/24 02:24:23;;;;;;;48.13;24.53;;;;;;;-0.86;95.52;100523.82;1647031;85;21090;-70
2022/03/24 02:26:51;;;;;;;45.40;24.77;;;;;;;-0.86;95.31;100526.00;1691674;84;21116;-70
2022/03/24 02:29:25;;;;;;;40.23;22.97;;;;;;;-0.85;95.08;100522.86;1691811;85;21051;-70
2022/03/24 02:31:50;;;;;;;39.40;22.83;;;;;;;-0.85;94.54;100520.20;1636762;86;21097;-70
2022/03/24 02:37:11;;;;;;;35.93;21.47;;;;;;;-0.81;93.26;100527.08;1623046;88;21113;-70
2022/03/24 02:39:47;;;;;;;34.20;18.30;;;;;;;-0.82;92.77;100516.91;1580736;91;21634;-70
2022/03/24 02:42:17;;;;;;;31.97;17.37;;;;;;;-0.80;92.47;100514.17;1580333;91;21643;-69
2022/03/24 02:44:49;;;;;;;29.33;16.13;;;;;;;-0.82;91.76;100508.94;1567033;90;21068;-69
2022/03/24 02:47:17;;;;;;;37.73;17.65;;;;;;;-0.81;91.17;100507.16;1619187;88;21069;-70
2022/03/24 02:49:46;;;;;;;29.30;17.87;;;;;;;-0.79;90.73;100507.92;1621750;88;21121;-70
2022/03/24 02:52:14;;;;;;;31.83;17.73;;;;;;;-0.77;90.37;100508.20;1643687;87;21554;-70
2022/03/24 02:54:42;;;;;;;32.40;17.27;;;;;;;-0.75;90.05;100502.81;1621883;88;21593;-70
2022/03/24 02:57:09;;;;;;;30.27;15.87;;;;;;;-0.75;89.85;100500.16;1622004;88;21092;-68
2022/03/24 02:59:37;;;;;;;31.00;17.03;;;;;;;-0.74;89.58;100497.91;1621739;88;21081;-72
2022/03/24 03:02:13;;;;;;;31.23;17.20;;;;;;;-0.75;89.54;100497.98;1622052;88;21088;-70
2022/03/24 03:04:41;;;;;;;32.63;17.67;;;;;;;-0.76;89.83;100497.14;1561740;92;21077;-69
2022/03/24 03:07:08;;;;;;;34.43;16.67;;;;;;;-0.77;90.25;100498.91;1582193;90;21129;-70
2022/03/24 03:09:42;;;;;;;30.30;17.13;;;;;;;-0.79;90.45;100499.48;1581912;90;21626;-71
2022/03/24 03:12:10;;;;;;;32.37;16.50;;;;;;;-0.82;91.22;100498.80;1561756;92;21105;-71
2022/03/24 03:14:38;;;;;;;32.03;16.03;;;;;;;-0.86;91.85;100506.08;1582192;90;21089;-70
2022/03/24 03:17:07;;;;;;;30.90;15.83;;;;;;;-0.90;92.47;100511.19;1581950;90;21133;-71
2022/03/24 03:19:34;;;;;;;29.67;15.37;;;;;;;-0.93;93.16;100510.03;1561818;92;21109;-71
2022/03/24 03:22:04;;;;;;;30.20;15.67;;;;;;;-0.99;93.63;100510.38;1541387;92;21635;-70
2022/03/24 03:24:32;;;;;;;32.37;16.77;;;;;;;-1.04;94.44;100495.19;1505501;94;21094;-71
2022/03/24 03:27:00;;;;;;;31.43;16.23;;;;;;;-1.07;95.24;100496.67;1525538;93;21108;-71
2022/03/24 03:29:29;;;;;;;32.30;17.50;;;;;;;-1.10;96.03;100496.36;1561014;90;21053;-70
2022/03/24 03:31:57;;;;;;;36.60;18.90;;;;;;;-1.12;96.83;100490.76;1647073;87;21106;-70
2022/03/24 03:34:25;;;;;;;33.93;17.37;;;;;;;-1.15;97.36;100489.15;1643141;87;21041;-71
2022/03/24 03:36:55;;;;;;;33.70;18.30;;;;;;;-1.18;97.67;100491.48;1627854;88;21044;-70
2022/03/24 03:39:23;;;;;;;31.40;18.00;;;;;;;-1.20;97.96;100483.23;1627889;88;21111;-71
2022/03/24 03:41:50;;;;;;;31.13;17.57;;;;;;;-1.21;98.29;100479.70;1574390;90;21090;-71
2022/03/24 03:44:17;;;;;;;34.87;18.77;;;;;;;-1.22;98.54;100478.45;1625488;87;21105;-70
2022/03/24 03:46:44;;;;;;;35.07;17.73;;;;;;;-1.26;99.09;100473.79;1666293;86;21508;-70
2022/03/24 03:49:12;;;;;;;32.07;18.07;;;;;;;-1.27;99.28;100477.41;1643728;86;21627;-70
2022/03/24 03:51:40;;;;;;;35.90;18.80;;;;;;;-1.27;99.45;100476.08;1666305;86;21535;-70
2022/03/24 03:54:08;;;;;;;32.90;18.17;;;;;;;-1.26;99.96;100480.91;1666266;86;21117;-70
2022/03/24 03:56:36;;;;;;;34.30;18.30;;;;;;;-1.24;100.00;100480.34;1666457;85;21547;-70
2022/03/24 03:59:04;;;;;;;32.87;17.97;;;;;;;-1.23;100.00;100469.65;1643745;86;21069;-70
2022/03/24 04:01:32;;;;;;;33.77;18.07;;;;;;;-1.22;100.00;100471.83;1624754;86;21050;-71
2022/03/24 04:04:00;;;;;;;35.87;17.63;;;;;;;-1.21;100.00;100467.77;1644224;86;21063;-71
2022/03/24 04:06:27;;;;;;;36.93;19.57;;;;;;;-1.18;100.00;100471.58;1643844;86;21552;-70
2022/03/24 04:08:54;;;;;;;38.00;18.73;;;;;;;-1.16;100.00;100467.04;1684569;84;21525;-70
2022/03/24 04:11:21;;;;;;;36.03;20.13;;;;;;;-1.13;100.00;100460.72;1781242;80;21056;-70
2022/03/24 04:13:49;;;;;;;37.57;19.33;;;;;;;-1.11;100.00;100461.48;1780927;80;21052;-70
2022/03/24 04:16:16;;;;;;;33.33;19.03;;;;;;;-1.09;100.00;100467.56;1750695;80;21371;-70
2022/03/24 04:18:48;;;;;;;39.60;19.23;;;;;;;-1.08;100.00;100462.65;1750502;80;21087;-71
2022/03/24 04:21:16;;;;;;;38.03;20.30;;;;;;;-1.07;100.00;100461.69;1749671;80;20984;-71
2022/03/24 04:23:44;;;;;;;36.77;20.30;;;;;;;-1.04;100.00;100458.87;1764054;81;21098;-70
2022/03/24 04:26:11;;;;;;;46.10;22.20;;;;;;;-1.02;100.00;100465.42;1732746;81;21552;-70
2022/03/24 04:28:38;;;;;;;38.07;21.53;;;;;;;-1.01;100.00;100461.36;1775643;79;21033;-71
2022/03/24 04:31:05;;;;;;;36.83;20.63;;;;;;;-0.99;100.00;100455.97;1750008;81;21545;-71
2022/03/24 04:33:32;;;;;;;36.17;20.10;;;;;;;-0.98;100.00;100454.52;1750010;81;21032;-70
2022/03/24 04:35:59;;;;;;;39.40;20.87;;;;;;;-0.94;100.00;100451.22;1750560;81;21044;-70
2022/03/24 04:38:28;;;;;;;39.67;21.57;;;;;;;-0.90;100.00;100450.58;1779087;81;21013;-70
2022/03/24 04:40:56;;;;;;;34.97;19.53;;;;;;;-0.88;100.00;100450.89;1778886;80;21091;-71
2022/03/24 04:43:24;;;;;;;39.70;21.27;;;;;;;-0.84;100.00;100455.55;1750982;81;21469;-71
2022/03/24 04:45:52;;;;;;;38.67;20.80;;;;;;;-0.82;100.00;100445.21;1779345;81;21561;-71
2022/03/24 04:48:20;;;;;;;41.20;20.93;;;;;;;-0.78;100.00;100460.05;1750973;81;21079;-70
2022/03/24 04:50:47;;;;;;;40.60;18.50;;;;;;;-0.72;100.00;100457.50;1779101;80;21040;-70
2022/03/24 04:53:15;;;;;;;34.03;18.03;;;;;;;-0.65;100.00;100452.70;1779230;80;21008;-71
2022/03/24 04:55:43;;;;;;;34.67;17.70;;;;;;;-0.59;100.00;100450.52;1779177;81;21008;-69
2022/03/24 04:58:10;;;;;;;44.47;18.67;;;;;;;-0.52;100.00;100448.36;1750711;81;21032;-70
2022/03/24 05:00:38;;;;;;;37.13;18.33;;;;;;;-0.43;100.00;100449.14;1751013;81;21036;-71
2022/03/24 05:03:05;;;;;;;38.43;18.87;;;;;;;-0.34;100.00;100441.09;1779171;81;21047;-70
2022/03/24 05:05:32;;;;;;;38.70;18.70;;;;;;;-0.21;100.00;100446.08;1750738;81;21052;-70
2022/03/24 05:08:00;;;;;;;40.77;18.40;;;;;;;-0.10;100.00;100444.58;1750651;81;21568;-70
2022/03/24 05:10:27;;;;;;;38.23;18.83;;;;;;;0.02;100.00;100442.95;1779213;81;21009;-71
2022/03/24 05:12:56;;;;;;;35.20;18.70;;;;;;;0.14;100.00;100447.08;1778853;80;21020;-70
2022/03/24 05:15:23;;;;;;;32.87;18.40;;;;;;;0.30;100.00;100443.45;1750768;81;21490;-70
2022/03/24 05:17:51;;;;;;;32.20;17.03;;;;;;;0.47;100.00;100447.72;1750671;81;21454;-70
2022/03/24 05:20:18;;;;;;;33.87;18.17;;;;;;;0.65;100.00;100447.03;1779102;81;21008;-71
2022/03/24 05:22:47;;;;;;;41.37;20.23;;;;;;;0.84;100.00;100454.22;1773753;79;21548;-70
2022/03/24 05:25:16;;;;;;;38.03;18.90;;;;;;;0.99;100.00;100447.03;1812922;79;20991;-71
2022/03/24 05:27:45;;;;;;;36.73;17.90;;;;;;;1.14;99.98;100446.53;1799598;79;21036;-70
2022/03/24 05:30:13;;;;;;;41.20;19.07;;;;;;;1.29;99.08;100437.99;1786390;80;21067;-69
2022/03/24 05:32:41;;;;;;;34.50;16.03;;;;;;;1.44;97.79;100441.47;1786427;80;21091;-70
2022/03/24 05:35:10;;;;;;;34.57;17.07;;;;;;;1.58;96.35;100436.55;1788606;80;21028;-70
2022/03/24 05:37:37;;;;;;;34.67;16.30;;;;;;;1.70;95.50;100431.23;1763912;80;21477;-71
2022/03/24 05:40:07;;;;;;;31.70;15.53;;;;;;;1.85;94.13;100429.31;1763905;80;21019;-70
2022/03/24 05:42:34;;;;;;;30.60;16.57;;;;;;;1.97;92.91;100428.95;1763919;80;21059;-69
2022/03/24 05:45:01;;;;;;;31.60;15.97;;;;;;;2.13;92.75;100428.73;1763703;80;21480;-70
2022/03/24 05:47:29;;;;;;;32.27;15.67;;;;;;;2.29;91.71;100421.84;1794909;80;21075;-69
2022/03/24 05:49:57;;;;;;;29.50;15.07;;;;;;;2.49;91.81;100427.58;1796660;79;21048;-68
2022/03/24 05:52:26;;;;;;;28.73;14.77;;;;;;;2.72;91.87;100419.25;1765421;80;20977;-70
2022/03/24 05:54:53;;;;;;;29.27;15.33;;;;;;;2.97;91.10;100413.80;1794673;80;21454;-68
2022/03/24 05:57:20;;;;;;;28.77;14.27;;;;;;;3.18;89.25;100421.20;1794837;80;21032;-70
2022/03/24 05:59:48;;;;;;;27.30;13.83;;;;;;;3.40;88.48;100415.12;1763794;80;21075;-69
2022/03/24 06:02:16;;;;;;;26.73;13.47;;;;;;;3.63;87.42;100412.03;1794648;80;21573;-69
2022/03/24 06:04:43;;;;;;;27.07;13.00;;;;;;;3.88;86.04;100410.99;1794543;80;21528;-69
2022/03/24 06:07:14;;;;;;;31.60;13.57;;;;;;;4.08;83.30;100412.11;1763873;80;21028;-69
2022/03/24 06:09:41;;;;;;;23.93;11.10;;;;;;;4.20;80.96;100415.66;1794584;80;21432;-71
2022/03/24 06:12:10;;;;;;;25.07;11.53;;;;;;;4.35;78.71;100403.70;1794656;80;20989;-69
2022/03/24 06:14:37;;;;;;;22.17;10.30;;;;;;;4.47;75.93;100405.91;1763722;80;21011;-70
2022/03/24 06:17:05;;;;;;;26.10;10.70;;;;;;;4.58;74.08;100404.20;1794405;80;21016;-71
2022/03/24 06:19:35;;;;;;;26.67;11.40;;;;;;;4.66;72.84;100407.12;1794569;80;21083;-66
2022/03/24 06:22:04;;;;;;;23.70;10.83;;;;;;;4.86;73.62;100398.79;1794559;80;21447;-70
2022/03/24 06:24:31;;;;;;;33.37;19.93;;;;;;;5.13;72.48;100391.16;1796315;80;21006;-70
2022/03/24 06:26:58;;;;;;;26.70;13.73;;;;;;;5.33;70.47;100382.78;1774508;79;21535;-72
2022/03/24 06:29:25;;;;;;;29.10;13.67;;;;;;;5.54;68.22;100371.20;1795352;80;21143;-71
2022/03/24 06:31:53;;;;;;;29.13;12.97;;;;;;;5.75;67.07;100373.05;1795237;80;21102;-70
2022/03/24 06:34:20;;;;;;;24.73;11.70;;;;;;;6.00;64.40;100374.48;1795935;80;21042;-71
2022/03/24 06:36:47;;;;;;;23.67;11.43;;;;;;;6.18;62.07;100377.39;1795736;80;21587;-70
2022/03/24 06:39:15;;;;;;;28.20;12.33;;;;;;;6.33;60.81;100376.06;1795627;80;21531;-69
2022/03/24 06:41:42;;;;;;;30.93;11.70;;;;;;;6.46;60.09;100369.97;1796060;80;21089;-69
2022/03/24 06:44:09;;;;;;;20.13;9.73;;;;;;;6.65;60.10;100378.56;1777503;80;21642;-71
2022/03/24 06:46:38;;;;;;;21.00;9.20;;;;;;;6.89;59.43;100373.32;1781527;80;21035;-69
2022/03/24 06:49:05;;;;;;;28.97;9.97;;;;;;;7.07;57.43;100373.48;1765118;80;21055;-69
2022/03/24 06:51:32;;;;;;;21.23;9.40;;;;;;;7.23;56.99;100371.58;1795776;80;21034;-69
2022/03/24 06:53:59;;;;;;;27.27;9.40;;;;;;;7.47;57.19;100368.47;1795851;80;21019;-69
2022/03/24 06:56:26;;;;;;;18.47;8.13;;;;;;;7.72;55.53;100367.48;1765176;80;21051;-68
2022/03/24 06:58:54;;;;;;;18.10;7.87;;;;;;;7.84;54.33;100360.94;1795701;80;21062;-70
2022/03/24 07:01:21;;;;;;;24.93;7.33;;;;;;;7.94;53.79;100355.04;1796008;80;21606;-71
2022/03/24 07:03:48;;;;;;;14.20;5.10;;;;;;;8.12;52.62;100352.93;1796088;80;21050;-71
2022/03/24 07:06:15;;;;;;;12.70;4.70;;;;;;;8.41;49.56;100360.91;1740323;80;21046;-69
2022/03/24 07:08:43;;;;;;;16.30;5.17;;;;;;;8.57;47.85;100355.37;1795896;80;21058;-69
2022/03/24 07:11:11;;;;;;;27.17;6.50;;;;;;;8.73;46.43;100352.89;1765032;80;21030;-71
2022/03/24 07:13:37;;;;;;;16.90;5.70;;;;;;;8.87;46.56;100345.63;1765156;80;21480;-69
2022/03/24 07:16:06;;;;;;;13.63;4.93;;;;;;;9.04;45.47;100348.48;1795929;80;21035;-70
2022/03/24 07:18:34;;;;;;;9.27;4.90;;;;;;;9.12;44.52;100346.70;1765249;80;21503;-69
2022/03/24 07:21:02;;;;;;;15.90;5.87;;;;;;;9.27;44.09;100342.11;1765640;80;21046;-68
2022/03/24 07:23:30;;;;;;;11.50;5.20;;;;;;;9.46;43.55;100338.40;1775689;80;21045;-70
2022/03/24 07:25:59;;;;;;;13.60;5.57;;;;;;;9.57;42.24;100332.73;1796071;79;21046;-70
2022/03/24 07:28:26;;;;;;;15.20;5.50;;;;;;;9.64;41.88;100330.27;1796043;79;20944;-69
2022/03/24 07:30:55;;;;;;;12.58;5.60;;;;;;;9.59;41.73;100332.08;1765389;80;21070;-70
2022/03/24 07:33:22;;;;;;;12.68;5.72;;;;;;;9.73;42.15;100325.26;1765146;80;21042;-70
2022/03/24 07:35:51;;;;;;;13.98;5.03;;;;;;;9.91;41.70;100333.30;1796077;80;21035;-70
2022/03/24 07:38:18;;;;;;;19.05;7.10;;;;;;;10.16;41.17;100333.44;1797476;80;21050;-69
2022/03/24 07:40:45;;;;;;;18.23;6.53;;;;;;;10.34;41.18;100332.02;1766656;80;21259;-70
2022/03/24 07:43:13;;;;;;;14.85;5.83;;;;;;;10.52;40.66;100331.95;1796053;80;21519;-70
2022/03/24 07:45:40;;;;;;;27.27;6.53;;;;;;;10.72;40.05;100318.48;1764917;80;21038;-70
2022/03/24 07:48:10;;;;;;;13.08;5.75;;;;;;;10.81;38.62;100316.13;1765544;80;21063;-69
2022/03/24 07:50:41;;;;;;;14.87;6.08;;;;;;;10.81;38.57;100314.77;1796185;80;21007;-71
2022/03/24 07:53:37;;;;;;;14.15;6.42;;;;;;;10.94;38.45;100306.20;1692466;85;21032;-70
2022/03/24 07:56:05;;;;;;;23.30;6.50;;;;;;;10.91;37.61;100307.03;1692606;84;21029;-70
2022/03/24 07:58:32;;;;;;;26.70;8.05;;;;;;;11.02;38.54;100304.83;1634504;87;21023;-70
2022/03/24 08:01:00;;;;;;;19.15;6.45;;;;;;;11.30;38.01;100296.39;1634415;87;21122;-72
2022/03/24 08:03:27;;;;;;;12.55;5.70;;;;;;;11.41;37.22;100289.78;1656443;87;21094;-70
2022/03/24 08:05:55;;;;;;;22.90;6.40;;;;;;;11.61;37.40;100284.01;1656466;87;21082;-69
2022/03/24 08:08:22;;;;;;;15.83;6.12;;;;;;;11.91;37.14;100282.45;1657018;87;21547;-70
2022/03/24 08:18:48;;;;;;;14.45;6.20;;;;;;;12.27;34.18;100260.28;1654894;87;21089;-71
2022/03/24 08:21:17;;;;;;;16.48;6.15;;;;;;;12.14;34.32;100267.63;1633346;87;21063;-71
2022/03/24 08:23:44;;;;;;;11.78;5.55;;;;;;;12.22;34.38;100259.47;1633299;87;21179;-73
2022/03/24 08:26:11;;;;;;;14.73;6.45;;;;;;;12.49;34.33;100250.00;1668939;86;21089;-70
2022/03/24 08:28:40;;;;;;;18.10;6.65;;;;;;;12.66;33.71;100254.83;1668273;85;21036;-71
2022/03/24 08:31:07;;;;;;;14.13;6.17;;;;;;;12.87;33.56;100246.03;1690967;85;21037;-71
2022/03/24 08:33:35;;;;;;;16.07;6.30;;;;;;;12.97;32.46;100247.13;1690989;85;21087;-69
2022/03/24 08:36:02;;;;;;;18.77;7.47;;;;;;;12.82;32.31;100234.88;1693567;84;21135;-70
2022/03/24 08:38:29;;;;;;;19.77;8.23;;;;;;;12.93;32.49;100237.67;1697969;84;21032;-70
2022/03/24 08:40:57;;;;;;;14.35;6.65;;;;;;;13.02;32.86;100242.52;1698149;84;21063;-71
2022/03/24 08:43:24;;;;;;;12.07;6.20;;;;;;;13.19;31.98;100237.78;1674900;84;21036;-71
2022/03/24 08:45:53;;;;;;;22.30;8.20;;;;;;;13.00;32.00;100227.77;1697863;84;21088;-70
2022/03/24 08:48:20;;;;;;;19.82;8.35;;;;;;;13.08;32.54;100233.64;1697598;84;21119;-72
2022/03/24 08:50:47;;;;;;;23.90;9.00;;;;;;;13.10;32.36;100222.95;1760907;81;21058;-70
2022/03/24 08:53:16;;;;;;;20.27;9.00;;;;;;;13.11;32.52;100213.75;1738443;82;21013;-70
2022/03/24 08:55:44;;;;;;;19.40;9.00;;;;;;;13.10;32.61;100210.73;1738926;81;21556;-69
2022/03/24 08:58:12;;;;;;;19.07;9.08;;;;;;;13.07;32.90;100212.44;1727377;83;21052;-71
2022/03/24 09:00:39;;;;;;;16.95;8.80;;;;;;;13.20;32.72;100217.77;1733759;82;21534;-71
2022/03/24 09:03:06;;;;;;;16.67;8.70;;;;;;;13.10;33.07;100205.30;1738802;82;21041;-71
2022/03/24 09:05:34;;;;;;;20.60;9.50;;;;;;;13.16;33.52;100200.16;1730252;83;21578;-72
2022/03/24 09:08:01;;;;;;;21.95;8.43;;;;;;;13.41;33.40;100202.15;1685340;82;21045;-70
2022/03/24 09:10:28;;;;;;;16.60;7.90;;;;;;;13.62;32.82;100198.70;1738653;82;21534;-70
2022/03/24 09:12:59;;;;;;;26.55;9.88;;;;;;;13.81;33.28;100191.83;1749429;81;21006;-70
2022/03/24 09:15:26;;;;;;;20.52;8.30;;;;;;;14.07;33.02;100193.23;1738414;82;21596;-70
2022/03/24 09:17:53;;;;;;;27.73;9.18;;;;;;;14.35;32.28;100191.47;1768669;81;21050;-71
2022/03/24 09:20:23;;;;;;;18.40;8.60;;;;;;;14.34;31.25;100178.91;1738868;81;21624;-72
2022/03/24 09:22:51;;;;;;;18.77;7.87;;;;;;;14.36;31.07;100173.25;1794870;79;21006;-70
2022/03/24 09:25:21;;;;;;;32.75;9.95;;;;;;;14.16;30.96;100188.00;1747068;81;21471;-70
2022/03/24 09:27:48;;;;;;;15.32;7.12;;;;;;;14.45;30.14;100174.84;1806648;79;21047;-69
2022/03/24 09:30:18;;;;;;;13.53;6.78;;;;;;;14.45;30.14;100174.84;1774509;81;21013;-71
2022/03/24 09:32:47;;;;;;;22.77;9.50;;;;;;;14.49;29.00;100169.86;1773556;81;21089;-71
2022/03/24 09:35:15;;;;;;;15.25;7.72;;;;;;;14.49;29.00;100169.86;1711756;84;21085;-70
2022/03/24 09:37:42;;;;;;;16.32;7.92;;;;;;;14.38;28.69;100165.25;1699153;84;21081;-69
2022/03/24 09:40:11;;;;;;;17.15;7.80;;;;;;;14.27;28.95;100160.32;1679948;84;21017;-69
2022/03/24 09:42:39;;;;;;;17.98;7.55;;;;;;;14.28;29.78;100157.91;1736495;83;20988;-71
2022/03/24 09:45:10;;;;;;;17.23;7.53;;;;;;;14.51;28.92;100152.29;1711924;83;21012;-70
2022/03/24 09:47:38;;;;;;;21.00;7.55;;;;;;;14.51;28.92;100152.29;1712067;83;21077;-69
2022/03/24 09:50:07;;;;;;;18.30;6.87;;;;;;;14.42;28.50;100150.21;1736166;81;21079;-71
2022/03/24 09:52:34;;;;;;;21.05;6.95;;;;;;;14.44;28.99;100145.41;1712023;83;20992;-69
2022/03/24 09:55:02;;;;;;;13.80;7.17;;;;;;;14.43;28.45;100148.36;1736298;83;21075;-69
2022/03/24 09:57:29;;;;;;;17.07;6.75;;;;;;;14.43;27.98;100145.11;1735409;83;21110;-71
2022/03/24 09:59:57;;;;;;;22.62;7.35;;;;;;;14.29;28.07;100141.06;1735348;82;21105;-71
2022/03/24 10:02:26;;;;;;;15.78;7.60;;;;;;;14.17;27.84;100141.58;1735459;81;21016;-73
2022/03/24 10:05:01;;;;;;;16.82;7.35;;;;;;;14.08;28.61;100130.50;1735334;83;21751;-70
2022/03/24 10:07:29;;;;;;;26.15;8.43;;;;;;;14.07;28.32;100123.89;1734550;83;21059;-71
2022/03/24 10:10:00;;;;;;;16.95;8.30;;;;;;;14.29;28.38;100126.11;1710641;83;21679;-70
2022/03/24 10:12:37;;;;;;;13.50;6.25;;;;;;;14.29;28.38;100126.11;1718682;83;21200;-69
2022/03/24 10:15:12;;;;;;;16.70;7.10;;;;;;;14.25;27.95;100125.66;1697098;84;21182;-70
2022/03/24 10:17:51;;;;;;;10.13;5.62;;;;;;;14.29;27.90;100126.11;1697034;84;21065;-71
2022/03/24 10:20:18;;;;;;;21.73;7.05;;;;;;;14.58;27.61;100115.66;1627508;86;21574;-70
2022/03/24 10:23:02;;;;;;;32.17;8.40;;;;;;;14.76;27.41;100117.38;1631128;88;21109;-72
2022/03/24 10:25:38;;;;;;;15.43;8.03;;;;;;;14.88;27.04;100118.22;1631611;88;21133;-71
2022/03/24 10:28:14;;;;;;;17.00;7.20;;;;;;;14.78;26.93;100111.74;1631709;88;21090;-71
2022/03/24 10:31:01;;;;;;;22.22;6.95;;;;;;;14.60;26.81;100110.33;1630684;88;21035;-69
2022/03/24 10:33:32;;;;;;;14.63;6.22;;;;;;;14.43;27.11;100110.27;1654632;86;21567;-70
2022/03/24 10:36:13;;;;;;;17.85;6.58;;;;;;;14.40;27.10;100101.96;1632259;87;21122;-70
2022/03/24 10:38:46;;;;;;;12.98;6.25;;;;;;;14.43;27.45;100096.67;1632070;87;21260;-71
2022/03/24 10:41:24;;;;;;;12.85;6.78;;;;;;;14.50;26.94;100090.77;1632833;87;21054;-69
2022/03/24 10:43:55;;;;;;;26.52;7.80;;;;;;;14.32;27.53;100088.48;1654076;87;21066;-70
2022/03/24 10:46:28;;;;;;;22.32;8.08;;;;;;;14.88;27.83;100077.39;1588199;90;21165;-69
2022/03/24 10:48:58;;;;;;;34.45;8.33;;;;;;;14.88;27.83;100077.39;1514035;95;21214;-69
2022/03/24 10:51:31;;;;;;;14.53;7.75;;;;;;;15.30;27.37;100075.03;1495512;95;21114;-71
2022/03/24 10:54:20;;;;;;;10.40;5.87;;;;;;;15.41;26.97;100076.34;1513830;95;21110;-69
2022/03/24 10:57:05;;;;;;;17.37;6.45;;;;;;;15.49;26.18;100070.73;1483897;95;21146;-69
2022/03/24 10:59:39;;;;;;;21.57;7.40;;;;;;;15.42;26.09;100068.48;1484228;95;21063;-70
2022/03/24 11:02:07;;;;;;;25.48;7.20;;;;;;;15.34;25.91;100061.32;1467891;96;21214;-69
2022/03/24 11:04:34;;;;;;;11.73;5.87;;;;;;;15.34;26.02;100060.48;1493534;96;21714;-69
2022/03/24 11:07:01;;;;;;;16.85;7.03;;;;;;;15.17;25.65;100052.66;1474042;96;21157;-73
2022/03/24 11:09:32;;;;;;;19.77;7.37;;;;;;;14.99;26.46;100046.34;1474319;96;21213;-70
2022/03/24 11:12:27;;;;;;;21.97;7.65;;;;;;;15.23;26.83;100046.92;1412526;99;21166;-72
2022/03/24 11:14:57;;;;;;;15.25;7.45;;;;;;;15.52;26.46;100039.50;1447119;99;21131;-72
2022/03/24 11:17:27;;;;;;;12.88;6.17;;;;;;;15.55;25.83;100040.47;1506098;94;21156;-69
2022/03/24 11:20:06;;;;;;;18.37;7.28;;;;;;;15.62;25.68;100029.59;1429432;100;21679;-71
2022/03/24 11:22:53;;;;;;;18.27;7.95;;;;;;;15.81;26.05;100030.21;1410538;101;21668;-72
2022/03/24 11:25:24;;;;;;;15.93;7.60;;;;;;;15.91;25.64;100014.80;1403269;102;21219;-69
2022/03/24 11:27:53;;;;;;;14.18;5.85;;;;;;;15.65;25.62;100019.63;1401869;102;21252;-72
2022/03/24 11:30:22;;;;;;;19.90;6.80;;;;;;;15.43;24.54;100013.48;1402327;102;21166;-72
2022/03/24 11:32:51;;;;;;;16.60;7.12;;;;;;;14.97;25.07;100020.37;1402627;102;21209;-70
2022/03/24 11:35:18;;;;;;;14.30;7.22;;;;;;;14.88;25.40;100012.88;1401862;102;21162;-71
2022/03/24 11:37:46;;;;;;;23.65;7.40;;;;;;;14.96;25.96;100013.23;1419054;101;21197;-70